PWSweather.com
Personal Weather Stations
Station Observations
PWSLORIS
The Farm At Fox Bay, Loris, SC 29569

The Farm At Fox BayLoris, SC 29569

Lat: 34.067097, Lon: -78.86907

Elevation: 108

Station Type: Davis Vantage Pro2 with 24 hr. FARS and solar

http://www.lorisweather.com

Latest ConditionsUpdated 6:45:01 PM EST Sunday, Nov 18, 2018
Currently Today's Max Today's Min Today's Average
Temperature 57.7°F14.3°C 66.0°F18.9°C 40.1°F4.5°C 52.0°F11.1°C
Dew Point 53.2°F11.8°C 55.5°F13.1°C 36.8°F2.7°C 45.9°F7.7°C
Winds Calm Calm 3.5 mph -5.6 kmh - - 0.6 mph 1.0 kmh
Wind Gusts -- 6.9 mph11.1 kmh - -
Humidity 85% 88% 67% 80%
Pressure 30.20 in1022.7 mb 30.30 in1026.1 mb 30.20 in1022.7 mb -
Hour Temp Dew Point Humidity Winds Wind Gusts Pressure Precip Precip Rate Daily Precip Total
06:45 PM 57.7°F14.3°C 53.2°F11.8°C 85% Calm Calm -- 30.20 in1022.7 mb - 0.00 in0.0 mm 0.00 in0.0 mm
06:30 PM 58.0°F14.4°C 53.2°F11.8°C 84% Calm Calm -- 30.20 in1022.7 mb - 0.00 in0.0 mm 0.00 in0.0 mm
06:15 PM 58.1°F14.5°C 53.3°F11.8°C 84% Calm Calm -- 30.20 in1022.7 mb - 0.00 in0.0 mm 0.00 in0.0 mm
06:00 PM 58.4°F14.7°C 53.3°F11.8°C 83% Calm Calm -- 30.20 in1022.7 mb - 0.00 in0.0 mm 0.00 in0.0 mm
05:45 PM 59.0°F15.0°C 53.8°F12.1°C 83% Calm Calm -- 30.20 in1022.7 mb - 0.00 in0.0 mm 0.00 in0.0 mm
05:30 PM 58.9°F14.9°C 53.7°F12.1°C 83% Calm Calm -- 30.20 in1022.7 mb - 0.00 in0.0 mm 0.00 in0.0 mm
05:15 PM 59.0°F15.0°C 53.8°F12.1°C 83% Calm Calm -- 30.20 in1022.7 mb - 0.00 in0.0 mm 0.00 in0.0 mm
05:00 PM 59.1°F15.1°C 53.6°F12.0°C 82% Calm Calm -- 30.21 in1023.0 mb - 0.00 in0.0 mm 0.00 in0.0 mm
04:45 PM 60.3°F15.7°C 54.1°F12.3°C 80% Calm Calm -- 30.21 in1023.0 mb - 0.00 in0.0 mm 0.00 in0.0 mm
04:30 PM 63.1°F17.3°C 54.3°F12.4°C 73% Calm Calm -- 30.20 in1022.7 mb - 0.00 in0.0 mm 0.00 in0.0 mm
04:15 PM 63.2°F17.3°C 54.4°F12.4°C 73% Calm Calm -- 30.21 in1023.0 mb - 0.00 in0.0 mm 0.00 in0.0 mm
04:00 PM 63.9°F17.7°C 54.7°F12.6°C 72% Calm Calm -- 30.21 in1023.0 mb - 0.00 in0.0 mm 0.00 in0.0 mm
03:45 PM 64.2°F17.9°C 54.6°F12.6°C 71% Calm Calm -- 30.21 in1023.0 mb - 0.00 in0.0 mm 0.00 in0.0 mm
03:30 PM 63.6°F17.6°C 54.4°F12.4°C 72% Calm Calm -- 30.21 in1023.0 mb - 0.00 in0.0 mm 0.00 in0.0 mm
03:15 PM 64.1°F17.8°C 54.5°F12.5°C 71% Calm Calm -- 30.21 in1023.0 mb - 0.00 in0.0 mm 0.00 in0.0 mm
03:00 PM 64.4°F18.0°C 54.0°F12.2°C 69% Calm Calm -- 30.20 in1022.7 mb - 0.00 in0.0 mm 0.00 in0.0 mm
02:45 PM 64.9°F18.3°C 54.5°F12.5°C 69% Calm Calm -- 30.20 in1022.7 mb - 0.00 in0.0 mm 0.00 in0.0 mm
02:30 PM 66.0°F18.9°C 54.7°F12.6°C 67% 3.5 mph NNE5.6 kmh NNE 4.6 mph7.4 kmh 30.20 in1022.7 mb - 0.00 in0.0 mm 0.00 in0.0 mm
02:15 PM 64.8°F18.2°C 54.0°F12.2°C 68% Calm Calm -- 30.21 in1023.0 mb - 0.00 in0.0 mm 0.00 in0.0 mm
02:00 PM 63.6°F17.6°C 55.5°F13.1°C 75% Calm Calm -- 30.21 in1023.0 mb - 0.00 in0.0 mm 0.00 in0.0 mm
01:45 PM 64.3°F17.9°C 53.9°F12.2°C 69% Calm Calm -- 30.22 in1023.4 mb - 0.00 in0.0 mm 0.00 in0.0 mm
01:30 PM 64.4°F18.0°C 53.6°F12.0°C 68% Calm Calm -- 30.22 in1023.4 mb - 0.00 in0.0 mm 0.00 in0.0 mm
01:15 PM 64.7°F18.2°C 53.9°F12.2°C 68% Calm Calm -- 30.22 in1023.4 mb - 0.00 in0.0 mm 0.00 in0.0 mm
01:00 PM 63.9°F17.7°C 53.1°F11.7°C 68% 2.3 mph ENE3.7 kmh ENE 3.5 mph5.6 kmh 30.23 in1023.7 mb - 0.00 in0.0 mm 0.00 in0.0 mm
12:45 PM 63.0°F17.2°C 52.3°F11.3°C 68% 1.2 mph ENE1.9 kmh ENE 2.3 mph3.7 kmh 30.24 in1024.0 mb - 0.00 in0.0 mm 0.00 in0.0 mm
12:30 PM 62.3°F16.8°C 52.4°F11.3°C 70% Calm Calm -- 30.24 in1024.0 mb - 0.00 in0.0 mm 0.00 in0.0 mm
12:15 PM 62.5°F16.9°C 52.2°F11.2°C 69% Calm Calm -- 30.25 in1024.4 mb - 0.00 in0.0 mm 0.00 in0.0 mm
12:00 PM 62.9°F17.2°C 52.1°F11.2°C 68% Calm Calm -- 30.26 in1024.7 mb - 0.00 in0.0 mm 0.00 in0.0 mm
11:45 AM 62.7°F17.1°C 51.6°F10.9°C 67% 1.2 mph ENE1.9 kmh ENE 1.2 mph1.9 kmh 30.26 in1024.7 mb - 0.00 in0.0 mm 0.00 in0.0 mm
11:30 AM 62.6°F17.0°C 52.2°F11.2°C 69% 3.5 mph ESE5.6 kmh ESE 4.6 mph7.4 kmh 30.27 in1025.1 mb - 0.00 in0.0 mm 0.00 in0.0 mm
11:15 AM 61.4°F16.3°C 51.5°F10.8°C 70% 2.3 mph ESE3.7 kmh ESE 4.6 mph7.4 kmh 30.27 in1025.1 mb - 0.00 in0.0 mm 0.00 in0.0 mm
11:00 AM 61.1°F16.2°C 51.7°F10.9°C 71% 3.5 mph E5.6 kmh E 6.9 mph11.1 kmh 30.28 in1025.4 mb - 0.00 in0.0 mm 0.00 in0.0 mm
10:45 AM 60.0°F15.6°C 50.6°F10.3°C 71% 3.5 mph E5.6 kmh E 6.9 mph11.1 kmh 30.28 in1025.4 mb - 0.00 in0.0 mm 0.00 in0.0 mm
10:30 AM 59.0°F15.0°C 50.4°F10.2°C 73% 2.3 mph ENE3.7 kmh ENE 5.8 mph9.3 kmh 30.29 in1025.7 mb - 0.00 in0.0 mm 0.00 in0.0 mm
10:15 AM 58.1°F14.5°C 49.5°F9.7°C 73% 1.2 mph SE1.9 kmh SE 3.5 mph5.6 kmh 30.29 in1025.7 mb - 0.00 in0.0 mm 0.00 in0.0 mm
10:00 AM 56.9°F13.8°C 48.7°F9.3°C 74% 2.3 mph ENE3.7 kmh ENE 4.6 mph7.4 kmh 30.29 in1025.7 mb - 0.00 in0.0 mm 0.00 in0.0 mm
09:45 AM 55.5°F13.1°C 48.1°F8.9°C 76% 3.5 mph E5.6 kmh E 6.9 mph11.1 kmh 30.29 in1025.7 mb - 0.00 in0.0 mm 0.00 in0.0 mm
09:30 AM 54.1°F12.3°C 47.4°F8.6°C 78% 3.5 mph E5.6 kmh E 4.6 mph7.4 kmh 30.30 in1026.1 mb - 0.00 in0.0 mm 0.00 in0.0 mm
09:15 AM 52.8°F11.6°C 47.1°F8.4°C 81% 3.5 mph NE5.6 kmh NE 4.6 mph7.4 kmh 30.30 in1026.1 mb - 0.00 in0.0 mm 0.00 in0.0 mm
09:00 AM 51.5°F10.8°C 46.2°F7.9°C 82% 2.3 mph ENE3.7 kmh ENE 4.6 mph7.4 kmh 30.30 in1026.1 mb - 0.00 in0.0 mm 0.00 in0.0 mm
08:45 AM 49.9°F9.9°C 44.9°F7.2°C 83% 2.3 mph E3.7 kmh E 5.8 mph9.3 kmh 30.30 in1026.1 mb - 0.00 in0.0 mm 0.00 in0.0 mm
08:30 AM 48.5°F9.2°C 43.9°F6.6°C 84% 3.5 mph E5.6 kmh E 5.8 mph9.3 kmh 30.30 in1026.1 mb - 0.00 in0.0 mm 0.00 in0.0 mm
08:15 AM 47.4°F8.6°C 43.1°F6.2°C 85% 1.2 mph E1.9 kmh E 3.5 mph5.6 kmh 30.29 in1025.7 mb - 0.00 in0.0 mm 0.00 in0.0 mm
08:00 AM 45.9°F7.7°C 42.2°F5.7°C 87% Calm Calm -- 30.29 in1025.7 mb - 0.00 in0.0 mm 0.00 in0.0 mm
07:45 AM 44.4°F6.9°C 41.1°F5.1°C 88% Calm Calm 1.2 mph1.9 kmh 30.28 in1025.4 mb - 0.00 in0.0 mm 0.00 in0.0 mm
07:30 AM 43.2°F6.2°C 39.8°F4.3°C 88% Calm Calm -- 30.28 in1025.4 mb - 0.00 in0.0 mm 0.00 in0.0 mm
07:15 AM 42.0°F5.6°C 38.7°F3.7°C 88% Calm Calm -- 30.28 in1025.4 mb - 0.00 in0.0 mm 0.00 in0.0 mm
07:00 AM 41.0°F5.0°C 37.5°F3.1°C 87% Calm Calm -- 30.28 in1025.4 mb - 0.00 in0.0 mm 0.00 in0.0 mm
06:45 AM 41.2°F5.1°C 37.9°F3.3°C 88% Calm Calm -- 30.28 in1025.4 mb - 0.00 in0.0 mm 0.00 in0.0 mm
06:30 AM 40.9°F4.9°C 37.3°F2.9°C 87% Calm Calm -- 30.27 in1025.1 mb - 0.00 in0.0 mm 0.00 in0.0 mm
06:15 AM 41.3°F5.2°C 38.0°F3.3°C 88% Calm Calm -- 30.27 in1025.1 mb - 0.00 in0.0 mm 0.00 in0.0 mm
06:00 AM 41.0°F5.0°C 37.4°F3.0°C 87% Calm Calm -- 30.27 in1025.1 mb - 0.00 in0.0 mm 0.00 in0.0 mm
05:45 AM 41.5°F5.3°C 37.9°F3.3°C 87% Calm Calm -- 30.27 in1025.1 mb - 0.00 in0.0 mm 0.00 in0.0 mm
05:30 AM 41.9°F5.5°C 38.3°F3.5°C 87% Calm Calm -- 30.27 in1025.1 mb - 0.00 in0.0 mm 0.00 in0.0 mm
05:15 AM 42.5°F5.8°C 38.9°F3.8°C 87% Calm Calm -- 30.27 in1025.1 mb - 0.00 in0.0 mm 0.00 in0.0 mm
05:00 AM 41.6°F5.3°C 38.0°F3.3°C 87% Calm Calm -- 30.26 in1024.7 mb - 0.00 in0.0 mm 0.00 in0.0 mm
04:45 AM 42.4°F5.8°C 38.8°F3.8°C 87% Calm Calm -- 30.26 in1024.7 mb - 0.00 in0.0 mm 0.00 in0.0 mm
04:30 AM 42.4°F5.8°C 39.1°F3.9°C 88% Calm Calm -- 30.25 in1024.4 mb - 0.00 in0.0 mm 0.00 in0.0 mm
04:15 AM 42.0°F5.6°C 38.7°F3.7°C 88% Calm Calm -- 30.25 in1024.4 mb - 0.00 in0.0 mm 0.00 in0.0 mm
04:00 AM 42.2°F5.7°C 38.9°F3.8°C 88% Calm Calm -- 30.25 in1024.4 mb - 0.00 in0.0 mm 0.00 in0.0 mm
03:45 AM 42.3°F5.7°C 39.0°F3.9°C 88% Calm Calm -- 30.25 in1024.4 mb - 0.00 in0.0 mm 0.00 in0.0 mm
03:30 AM 41.8°F5.4°C 38.2°F3.4°C 87% Calm Calm -- 30.25 in1024.4 mb - 0.00 in0.0 mm 0.00 in0.0 mm
03:15 AM 42.2°F5.7°C 38.6°F3.7°C 87% Calm Calm -- 30.26 in1024.7 mb - 0.00 in0.0 mm 0.00 in0.0 mm
03:00 AM 42.6°F5.9°C 39.0°F3.9°C 87% Calm Calm -- 30.26 in1024.7 mb - 0.00 in0.0 mm 0.00 in0.0 mm
02:45 AM 43.5°F6.4°C 39.9°F4.4°C 87% Calm Calm -- 30.26 in1024.7 mb - 0.00 in0.0 mm 0.00 in0.0 mm
02:30 AM 44.4°F6.9°C 41.1°F5.1°C 88% Calm Calm -- 30.25 in1024.4 mb - 0.00 in0.0 mm 0.00 in0.0 mm
02:15 AM 42.1°F5.6°C 38.8°F3.8°C 88% Calm Calm -- 30.25 in1024.4 mb - 0.00 in0.0 mm 0.00 in0.0 mm
02:00 AM 41.0°F5.0°C 37.7°F3.2°C 88% Calm Calm -- 30.25 in1024.4 mb - 0.00 in0.0 mm 0.00 in0.0 mm
01:45 AM 40.9°F4.9°C 37.6°F3.1°C 88% Calm Calm -- 30.25 in1024.4 mb - 0.00 in0.0 mm 0.00 in0.0 mm
01:30 AM 40.6°F4.8°C 37.3°F2.9°C 88% Calm Calm -- 30.25 in1024.4 mb - 0.00 in0.0 mm 0.00 in0.0 mm
01:15 AM 40.3°F4.6°C 37.0°F2.8°C 88% Calm Calm -- 30.26 in1024.7 mb - 0.00 in0.0 mm 0.00 in0.0 mm
01:00 AM 40.2°F4.6°C 36.9°F2.7°C 88% Calm Calm -- 30.26 in1024.7 mb - 0.00 in0.0 mm 0.00 in0.0 mm
12:45 AM 40.3°F4.6°C 37.1°F2.8°C 88% Calm Calm -- 30.26 in1024.7 mb - 0.00 in0.0 mm 0.00 in0.0 mm
12:30 AM 40.6°F4.8°C 37.3°F2.9°C 88% Calm Calm -- 30.26 in1024.7 mb - 0.00 in0.0 mm 0.00 in0.0 mm
12:15 AM 40.6°F4.8°C 37.3°F2.9°C 88% Calm Calm -- 30.26 in1024.7 mb - 0.00 in0.0 mm 0.00 in0.0 mm
12:00 AM 40.7°F4.8°C 37.4°F3.0°C 88% Calm Calm -- 30.26 in1024.7 mb - 0.00 in0.0 mm 0.00 in0.0 mm